Time;durP1;ratioP1;P1;durP2;ratioP2;P2;SDS_P1;SDS_P2;PMS_P1;PMS_P2;Temp;Humidity;BMP_temperature;BMP_pressure;BME280_temperature;BME280_humidity;BME280_pressure;Samples;Min_cycle;Max_cycle;Signal;HPM_P1;HPM_P2
2022/06/03 00:00:51;;;;;;;2.17;1.60;;;14.60;61.20;;;;;;9180773;19;20030;-64
2022/06/03 00:04:15;;;;;;;4.10;2.40;;;14.60;60.50;;;;;;9186817;19;20026;-63
2022/06/03 00:07:33;;;;;;;5.53;2.10;;;14.60;60.70;;;;;;9187718;19;20022;-63
2022/06/03 00:11:04;;;;;;;9.13;2.00;;;14.50;60.70;;;;;;9185088;19;20018;-63
2022/06/03 00:14:32;;;;;;;4.85;2.35;;;14.50;60.90;;;;;;9188491;19;20006;-63
2022/06/03 00:17:50;;;;;;;2.80;2.25;;;14.40;61.00;;;;;;9188137;19;20333;-64
2022/06/03 00:21:02;;;;;;;2.72;1.92;;;14.40;61.00;;;;;;9184877;19;20018;-63
2022/06/03 00:24:22;;;;;;;4.65;2.35;;;14.30;61.10;;;;;;9183549;19;20037;-64
2022/06/03 00:27:57;;;;;;;4.15;2.30;;;14.20;61.30;;;;;;9180756;19;20071;-64
2022/06/03 00:31:15;;;;;;;3.25;2.15;;;14.20;61.40;;;;;;9182302;19;20014;-63
2022/06/03 00:34:55;;;;;;;7.03;2.30;;;14.10;61.40;;;;;;9184283;19;20026;-63
2022/06/03 00:38:06;;;;;;;9.10;2.72;;;14.10;61.60;;;;;;9187088;19;20010;-63
2022/06/03 00:41:35;;;;;;;4.68;2.40;;;14.00;61.40;;;;;;9189002;19;20487;-63
2022/06/03 00:45:02;;;;;;;7.65;2.90;;;14.00;61.80;;;;;;9187013;19;20352;-63
2022/06/03 00:48:23;;;;;;;4.60;2.75;;;14.00;61.90;;;;;;9186561;19;20050;-63
2022/06/03 00:51:54;;;;;;;5.10;2.20;;;13.90;61.90;;;;;;9184555;19;20018;-63
2022/06/03 00:55:24;;;;;;;5.80;2.28;;;13.80;62.00;;;;;;9186281;19;20019;-64
2022/06/03 00:58:59;;;;;;;9.27;2.65;;;13.80;62.10;;;;;;9185402;19;20020;-63
2022/06/03 01:02:14;;;;;;;;;;;13.80;62.10;;;;;;9187669;19;20041;-63
2022/06/03 01:05:33;;;;;;;5.78;2.45;;;13.70;61.80;;;;;;9185414;19;19954;-63
2022/06/03 01:08:53;;;;;;;10.07;2.92;;;13.70;62.00;;;;;;9183773;19;20385;-65
2022/06/03 01:12:22;;;;;;;4.85;2.70;;;13.60;62.10;;;;;;9182735;19;20014;-63
2022/06/03 01:15:38;;;;;;;5.70;2.38;;;13.60;62.30;;;;;;9180771;19;20023;-63
2022/06/03 01:18:53;;;;;;;7.28;2.78;;;13.60;62.20;;;;;;9186486;19;20029;-63
2022/06/03 01:22:10;;;;;;;9.32;3.08;;;13.50;62.40;;;;;;9186133;19;20085;-63
2022/06/03 01:25:50;;;;;;;7.32;2.78;;;13.50;62.50;;;;;;9185892;19;20064;-63
2022/06/03 01:29:25;;;;;;;8.70;2.55;;;13.40;62.60;;;;;;9185749;19;20022;-63
2022/06/03 01:33:05;;;;;;;4.45;2.28;;;13.40;62.70;;;;;;9182289;19;20082;-63
2022/06/03 01:36:37;;;;;;;5.55;3.00;;;13.40;62.80;;;;;;9184656;19;20011;-63
2022/06/03 01:39:57;;;;;;;4.88;2.47;;;13.40;62.80;;;;;;9186250;19;20090;-63
2022/06/03 01:43:28;;;;;;;7.38;2.60;;;13.30;62.90;;;;;;9184869;19;20011;-63
2022/06/03 01:46:35;;;;;;;4.50;2.75;;;13.30;63.60;;;;;;9183774;19;20372;-63
2022/06/03 01:50:06;;;;;;;6.00;2.60;;;13.30;62.80;;;;;;9183243;19;20022;-63
2022/06/03 01:53:39;;;;;;;6.32;2.35;;;13.30;63.10;;;;;;9184392;19;20338;-64
2022/06/03 01:57:15;;;;;;;8.07;2.60;;;13.30;63.20;;;;;;9183318;19;20022;-63
2022/06/03 02:00:32;;;;;;;12.18;3.28;;;13.20;63.20;;;;;;9184258;19;20023;-63
2022/06/03 02:03:53;;;;;;;7.40;2.88;;;13.20;63.20;;;;;;9183450;19;20014;-63
2022/06/03 02:07:30;;;;;;;7.30;3.13;;;13.20;63.30;;;;;;9183878;19;20014;-63
2022/06/03 02:11:13;;;;;;;9.70;2.63;;;13.10;63.40;;;;;;9182558;19;20721;-63
2022/06/03 02:14:57;;;;;;;9.65;3.55;;;13.10;63.40;;;;;;9179016;19;20340;-66
2022/06/03 02:18:33;;;;;;;5.03;2.80;;;13.10;63.50;;;;;;9176336;19;20015;-63
2022/06/03 02:22:09;;;;;;;10.43;3.72;;;13.00;63.50;;;;;;9179860;19;20412;-64
2022/06/03 02:25:56;;;;;;;12.13;3.03;;;13.00;63.60;;;;;;9177530;19;20018;-63
2022/06/03 02:33:23;;;;;;;9.45;3.40;;;13.00;63.70;;;;;;9179479;19;20334;-63
2022/06/03 02:36:55;;;;;;;6.30;3.05;;;13.00;63.70;;;;;;9181336;19;20487;-64
2022/06/03 02:40:29;;;;;;;7.22;3.45;;;12.90;63.70;;;;;;9179733;19;20022;-64
2022/06/03 02:43:55;;;;;;;8.63;4.28;;;12.90;63.90;;;;;;9181801;19;20011;-63
2022/06/03 02:47:42;;;;;;;8.50;3.38;;;12.80;63.80;;;;;;9180482;19;20014;-64
2022/06/03 02:51:22;;;;;;;9.15;3.60;;;12.90;64.00;;;;;;9181427;19;20023;-64
2022/06/03 02:54:52;;;;;;;7.28;3.33;;;12.80;64.00;;;;;;9181461;19;20074;-63
2022/06/03 02:58:16;;;;;;;6.55;3.03;;;12.70;63.90;;;;;;9179777;19;20018;-64
2022/06/03 03:01:57;;;;;;;8.05;3.30;;;12.80;64.10;;;;;;9180517;19;20376;-64
2022/06/03 03:05:21;;;;;;;8.32;3.30;;;12.70;64.20;;;;;;9180867;19;20490;-65
2022/06/03 03:09:05;;;;;;;7.20;2.97;;;12.70;64.20;;;;;;9180685;19;20018;-63
2022/06/03 03:12:36;;;;;;;7.00;3.10;;;12.60;64.20;;;;;;9179551;19;20018;-63
2022/06/03 03:15:59;;;;;;;6.95;3.42;;;12.60;64.30;;;;;;9176971;19;20025;-64
2022/06/03 03:19:40;;;;;;;5.53;3.53;;;12.60;64.30;;;;;;9180067;19;20086;-63
2022/06/03 03:23:16;;;;;;;8.73;3.72;;;12.50;64.40;;;;;;9177759;19;20011;-63
2022/06/03 03:26:29;;;;;;;6.40;3.60;;;12.50;64.40;;;;;;9180450;19;20022;-64
2022/06/03 03:30:06;;;;;;;4.57;2.97;;;12.50;64.40;;;;;;9179058;19;20030;-62
2022/06/03 03:33:34;;;;;;;11.93;4.20;;;12.40;64.50;;;;;;9177447;19;20499;-63
2022/06/03 03:36:57;;;;;;;9.23;3.63;;;12.40;64.60;;;;;;9181849;19;20022;-63
2022/06/03 03:40:51;;;;;;;6.50;4.10;;;12.40;64.60;;;;;;9188842;19;20022;-62
2022/06/03 03:44:22;;;;;;;8.68;3.72;;;12.40;64.80;;;;;;9189637;19;20161;-62
2022/06/03 03:48:03;;;;;;;7.38;3.58;;;12.30;64.70;;;;;;9190597;19;20467;-63
2022/06/03 03:51:20;;;;;;;6.07;3.33;;;12.30;64.80;;;;;;9186829;19;20014;-63
2022/06/03 03:55:02;;;;;;;11.02;4.72;;;12.30;64.70;;;;;;9188625;19;20014;-63
2022/06/03 03:58:46;;;;;;;7.15;3.80;;;12.30;65.00;;;;;;9188265;19;20466;-62
2022/06/03 04:02:20;;;;;;;8.55;4.10;;;12.30;65.10;;;;;;9186907;19;20003;-63
2022/06/03 04:06:04;;;;;;;7.25;3.60;;;12.20;65.00;;;;;;9186819;19;20018;-63
2022/06/03 04:09:30;;;;;;;6.45;3.60;;;12.20;65.10;;;;;;9185329;19;20014;-64
2022/06/03 04:13:17;;;;;;;7.25;3.15;;;12.20;65.10;;;;;;9185031;19;20494;-62
2022/06/03 04:17:00;;;;;;;10.57;4.22;;;12.20;65.30;;;;;;9183684;19;20017;-64
2022/06/03 04:20:34;;;;;;;10.55;4.20;;;12.20;65.40;;;;;;9188808;19;20340;-63
2022/06/03 04:24:13;;;;;;;5.50;4.05;;;12.20;65.40;;;;;;9186664;19;20019;-63
2022/06/03 04:27:50;;;;;;;13.82;4.43;;;12.20;65.50;;;;;;9187006;19;20026;-64
2022/06/03 04:31:26;;;;;;;12.25;4.20;;;12.20;65.60;;;;;;9186701;19;20360;-63
2022/06/03 04:35:15;;;;;;;16.88;4.50;;;12.20;65.70;;;;;;9188261;19;20014;-63
2022/06/03 04:38:54;;;;;;;12.38;4.68;;;12.20;65.80;;;;;;9187869;19;20018;-63
2022/06/03 04:42:42;;;;;;;10.65;4.57;;;12.20;65.80;;;;;;9186782;19;20735;-63
2022/06/03 04:46:17;;;;;;;12.73;5.15;;;12.20;66.00;;;;;;9185075;19;20022;-63
2022/06/03 04:50:08;;;;;;;9.00;5.25;;;12.20;66.00;;;;;;9184776;19;20086;-63
2022/06/03 04:54:31;;;;;;;10.85;4.78;;;12.30;66.20;;;;;;9182557;19;20019;-64
2022/06/03 04:58:15;;;;;;;12.50;5.50;;;12.30;66.20;;;;;;9185355;19;20011;-63
2022/06/03 05:01:53;;;;;;;9.57;4.83;;;12.30;66.20;;;;;;9186300;19;20010;-63
2022/06/03 05:05:39;;;;;;;9.07;5.32;;;12.30;66.30;;;;;;9187343;19;20401;-63
2022/06/03 05:09:14;;;;;;;12.93;4.80;;;12.40;66.50;;;;;;9183427;19;20512;-63
2022/06/03 05:12:49;;;;;;;11.88;5.57;;;12.40;66.40;;;;;;9183427;19;20034;-63
2022/06/03 05:16:26;;;;;;;10.18;5.20;;;12.40;66.50;;;;;;9180465;19;20011;-63
2022/06/03 05:20:00;;;;;;;15.57;6.15;;;12.50;66.60;;;;;;9185456;19;20073;-63
2022/06/03 05:23:21;;;;;;;15.13;5.57;;;12.50;66.60;;;;;;9186114;19;20018;-63
2022/06/03 05:26:55;;;;;;;15.27;5.97;;;12.60;66.50;;;;;;9185216;19;20021;-63
2022/06/03 05:30:16;;;;;;;13.25;5.50;;;12.60;66.70;;;;;;9185813;19;20500;-62
2022/06/03 05:33:52;;;;;;;11.52;5.32;;;12.70;66.60;;;;;;9181801;19;20014;-65
2022/06/03 05:37:38;;;;;;;13.50;5.38;;;12.80;66.80;;;;;;9183441;19;20023;-63
2022/06/03 05:42:23;;;;;;;14.32;4.97;;;12.90;66.90;;;;;;9181739;19;20015;-64
2022/06/03 05:44:53;;;;;;;14.85;5.43;;;13.00;66.90;;;;;;9182880;19;20018;-63
2022/06/03 05:48:05;;;;;;;7.05;4.93;;;13.20;66.90;;;;;;9181820;19;20022;-62
2022/06/03 05:51:21;;;;;;;8.32;4.85;;;13.30;66.80;;;;;;9183815;19;20451;-64
2022/06/03 05:54:47;;;;;;;11.15;4.95;;;13.50;67.00;;;;;;9178618;19;20024;-64
2022/06/03 05:58:09;;;;;;;12.45;5.30;;;13.60;67.00;;;;;;9183255;19;20026;-63
2022/06/03 06:01:34;;;;;;;11.23;5.22;;;13.80;66.90;;;;;;9178982;19;20022;-63
2022/06/03 06:05:05;;;;;;;10.13;5.80;;;14.00;67.00;;;;;;9177747;19;20022;-63
2022/06/03 06:08:21;;;;;;;10.07;5.55;;;14.20;67.00;;;;;;9177555;19;20025;-63
2022/06/03 06:11:41;;;;;;;10.93;4.50;;;14.40;66.80;;;;;;9179700;19;20026;-64
2022/06/03 06:15:03;;;;;;;7.63;4.78;;;14.60;66.80;;;;;;9176334;19;20352;-64
2022/06/03 06:18:17;;;;;;;8.43;4.97;;;14.70;66.70;;;;;;9177016;19;20013;-64
2022/06/03 06:21:44;;;;;;;9.43;4.90;;;15.00;66.60;;;;;;9181298;19;20018;-64
2022/06/03 06:24:58;;;;;;;13.10;5.20;;;15.10;66.50;;;;;;9179884;19;20014;-63
2022/06/03 06:28:15;;;;;;;10.68;4.97;;;15.40;66.40;;;;;;9180951;19;20657;-64
2022/06/03 06:31:39;;;;;;;9.90;4.50;;;15.60;66.30;;;;;;9176594;19;20022;-64
2022/06/03 06:35:07;;;;;;;14.33;4.93;;;15.80;66.20;;;;;;9177867;19;20688;-64
2022/06/03 06:38:18;;;;;;;7.03;4.68;;;16.00;66.10;;;;;;9182966;19;20010;-64
2022/06/03 06:41:35;;;;;;;6.60;4.03;;;16.20;65.90;;;;;;9176204;19;20022;-64
2022/06/03 06:44:53;;;;;;;8.95;4.53;;;16.40;65.80;;;;;;9176907;19;20011;-63
2022/06/03 06:48:12;;;;;;;7.72;4.57;;;16.60;65.70;;;;;;9176782;19;20014;-64
2022/06/03 06:51:35;;;;;;;6.18;4.05;;;16.80;65.50;;;;;;9176016;19;20098;-65
2022/06/03 06:54:52;;;;;;;7.68;3.75;;;17.00;65.40;;;;;;9173337;19;20010;-64
2022/06/03 06:58:08;;;;;;;8.80;3.88;;;17.20;65.20;;;;;;9179419;19;20030;-64
2022/06/03 07:01:20;;;;;;;10.73;4.18;;;17.40;64.90;;;;;;9172767;19;20017;-64
2022/06/03 07:04:30;;;;;;;10.20;3.97;;;17.60;64.70;;;;;;9177298;19;20010;-64
2022/06/03 07:07:42;;;;;;;6.78;3.30;;;17.80;64.50;;;;;;9178803;19;20026;-65
2022/06/03 07:10:51;;;;;;;7.93;3.70;;;17.90;64.20;;;;;;9172737;19;20019;-66
2022/06/03 07:13:59;;;;;;;9.43;4.43;;;18.10;64.10;;;;;;9168880;19;20010;-67
2022/06/03 07:20:42;;;;;;;7.82;4.25;;;18.40;63.70;;;;;;9174074;19;20491;-66
2022/06/03 07:23:51;;;;;;;6.32;3.85;;;18.50;63.50;;;;;;9176486;19;20364;-65
2022/06/03 07:27:03;;;;;;;6.85;3.00;;;18.70;63.40;;;;;;9180649;19;20026;-65
2022/06/03 07:30:15;;;;;;;6.60;3.22;;;18.90;63.20;;;;;;9173808;19;20011;-66
2022/06/03 07:33:41;;;;;;;5.35;3.33;;;19.10;63.00;;;;;;9172475;19;20017;-67
2022/06/03 07:36:50;;;;;;;7.20;3.60;;;19.30;62.70;;;;;;9174869;19;20357;-65
2022/06/03 07:39:58;;;;;;;5.60;2.75;;;19.40;62.70;;;;;;9173162;19;20014;-65
2022/06/03 07:43:09;;;;;;;9.23;3.10;;;19.50;62.50;;;;;;9173573;19;20074;-66
2022/06/03 07:46:18;;;;;;;7.75;3.22;;;19.70;62.30;;;;;;9173287;19;21727;-67
2022/06/03 07:49:27;;;;;;;5.57;2.90;;;19.90;62.20;;;;;;9172400;19;20015;-65
2022/06/03 07:52:40;;;;;;;4.95;3.10;;;20.10;61.80;;;;;;9173491;19;20015;-64
2022/06/03 07:55:46;;;;;;;4.55;3.10;;;20.30;61.50;;;;;;9172391;19;20029;-64
2022/06/03 07:59:01;;;;;;;8.05;3.22;;;20.40;61.40;;;;;;9172443;19;20037;-64
2022/06/03 08:02:16;;;;;;;7.18;2.95;;;20.50;61.20;;;;;;9179674;19;20464;-64
2022/06/03 08:05:24;;;;;;;8.48;2.75;;;20.70;60.90;;;;;;9176066;19;20564;-63
2022/06/03 08:11:49;;;;;;;8.52;3.40;;;21.00;60.50;;;;;;9175589;19;20014;-63
2022/06/03 08:14:54;;;;;;;4.57;2.58;;;21.20;60.40;;;;;;9167434;19;20018;-64
2022/06/03 08:18:02;;;;;;;9.35;3.55;;;21.30;60.10;;;;;;9169957;19;20019;-65
2022/06/03 08:21:14;;;;;;;5.55;2.95;;;21.40;59.90;;;;;;9173915;19;20022;-65
2022/06/03 08:24:22;;;;;;;9.35;3.00;;;21.60;59.80;;;;;;9178542;19;20375;-66
2022/06/03 08:27:30;;;;;;;6.45;2.65;;;21.80;59.90;;;;;;9183905;19;20021;-64
2022/06/03 08:30:36;;;;;;;9.75;2.63;;;22.00;59.70;;;;;;9181758;19;20222;-64
2022/06/03 08:33:45;;;;;;;3.85;2.35;;;22.20;59.40;;;;;;9180041;19;20022;-64
2022/06/03 08:36:54;;;;;;;6.75;2.55;;;22.30;59.00;;;;;;9179750;19;20029;-64
2022/06/03 08:40:02;;;;;;;6.55;2.45;;;22.50;58.70;;;;;;9178773;19;20017;-64
2022/06/03 08:43:15;;;;;;;4.53;2.35;;;22.70;58.60;;;;;;9182234;19;20014;-66
2022/06/03 08:46:30;;;;;;;6.38;2.38;;;22.80;58.30;;;;;;9180879;19;20010;-64
2022/06/03 08:49:47;;;;;;;3.95;2.38;;;23.00;58.00;;;;;;9181282;19;20018;-65
2022/06/03 08:53:03;;;;;;;4.97;2.45;;;23.10;57.60;;;;;;9179482;19;20022;-68
2022/06/03 08:56:11;;;;;;;6.65;2.83;;;23.20;57.40;;;;;;9181685;19;21490;-66
2022/06/03 08:59:20;;;;;;;7.72;2.13;;;23.30;57.50;;;;;;9181858;19;20029;-65
2022/06/03 09:02:36;;;;;;;8.30;2.38;;;23.40;57.20;;;;;;9182596;19;20457;-62
2022/06/03 09:05:47;;;;;;;2.58;2.38;;;23.50;57.00;;;;;;9176314;19;20018;-67
2022/06/03 09:09:00;;;;;;;7.32;2.55;;;23.60;56.60;;;;;;9179514;19;20054;-65
2022/06/03 09:12:15;;;;;;;4.45;2.72;;;23.70;56.50;;;;;;9181142;19;20015;-66
2022/06/03 09:15:25;;;;;;;6.13;3.10;;;23.90;56.30;;;;;;9175436;19;20018;-69
2022/06/03 09:18:34;;;;;;;8.52;3.35;;;23.90;56.30;;;;;;9185628;19;20360;-69
2022/06/03 09:21:41;;;;;;;7.22;2.65;;;23.90;56.10;;;;;;9186658;19;20379;-69
2022/06/03 09:24:49;;;;;;;4.38;2.88;;;24.00;55.90;;;;;;9184366;19;20028;-69
2022/06/03 09:27:54;;;;;;;5.50;2.55;;;24.00;55.80;;;;;;9185019;19;20017;-69
2022/06/03 09:31:09;;;;;;;8.63;2.78;;;24.00;55.80;;;;;;9186326;19;20033;-71
2022/06/03 09:34:37;;;;;;;5.63;2.90;;;24.10;55.60;;;;;;9183906;19;20015;-69
2022/06/03 09:37:47;;;;;;;4.85;2.75;;;24.20;55.50;;;;;;9185947;19;20086;-69
2022/06/03 09:41:00;;;;;;;6.32;3.25;;;24.30;55.40;;;;;;9183891;19;20010;-70
2022/06/03 09:44:05;;;;;;;3.90;2.45;;;24.40;55.10;;;;;;9184567;19;20082;-69
2022/06/03 09:47:12;;;;;;;3.83;1.83;;;24.50;55.10;;;;;;9186205;19;20029;-69
2022/06/03 09:50:19;;;;;;;2.65;2.10;;;24.60;54.90;;;;;;9182579;19;20025;-71
2022/06/03 09:53:33;;;;;;;4.22;2.65;;;24.70;54.70;;;;;;9183851;19;20002;-71
2022/06/03 09:56:46;;;;;;;7.88;2.25;;;24.80;54.30;;;;;;9183833;19;20377;-70
2022/06/03 09:59:57;;;;;;;5.27;2.63;;;24.80;54.30;;;;;;9185066;19;20202;-70
2022/06/03 10:03:03;;;;;;;6.82;2.70;;;24.90;54.10;;;;;;9183181;19;20015;-71
2022/06/03 10:06:42;;;;;;;4.22;2.15;;;25.00;53.90;;;;;;9183101;19;20360;-70
2022/06/03 10:12:56;;;;;;;3.03;2.15;;;25.20;53.60;;;;;;9181106;19;20021;-71
2022/06/03 10:16:03;;;;;;;3.95;2.15;;;25.20;53.40;;;;;;9173413;19;20638;-70
2022/06/03 10:19:09;;;;;;;3.42;2.00;;;25.30;53.40;;;;;;9179600;19;20023;-70
2022/06/03 10:22:14;;;;;;;1.55;1.45;;;25.40;53.30;;;;;;9177938;19;20030;-72
2022/06/03 10:25:23;;;;;;;3.13;1.30;;;25.50;53.20;;;;;;9176989;19;20019;-66
2022/06/03 10:28:35;;;;;;;2.10;1.30;;;25.60;53.00;;;;;;9177390;19;20022;-74
2022/06/03 10:31:40;;;;;;;2.90;1.48;;;25.70;52.40;;;;;;9179104;19;20014;-73
2022/06/03 10:34:45;;;;;;;3.67;1.50;;;25.80;52.30;;;;;;9181220;19;20508;-74
2022/06/03 10:37:53;;;;;;;2.60;1.10;;;25.90;52.10;;;;;;9174697;19;20448;-72
2022/06/03 10:40:59;;;;;;;3.83;1.30;;;26.00;51.70;;;;;;9172771;19;20021;-72
2022/06/03 10:44:13;;;;;;;4.40;1.13;;;26.00;51.50;;;;;;9171615;19;20350;-73
2022/06/03 10:47:20;;;;;;;4.65;1.27;;;26.10;51.00;;;;;;9169488;19;20029;-74
2022/06/03 10:50:31;;;;;;;4.35;1.13;;;26.10;51.00;;;;;;9169269;19;20018;-74
2022/06/03 11:03:43;;;;;;;9.18;1.58;;;26.30;50.30;;;;;;9179496;19;20354;-71
2022/06/03 11:06:48;;;;;;;3.25;1.67;;;26.30;51.00;;;;;;9175910;19;20041;-73
2022/06/03 11:09:57;;;;;;;5.68;1.77;;;26.30;50.30;;;;;;9177287;19;20021;-70
2022/06/03 11:13:03;;;;;;;2.55;1.30;;;26.40;50.10;;;;;;9175921;19;20011;-71
2022/06/03 11:16:21;;;;;;;5.00;1.25;;;26.30;49.90;;;;;;9171617;19;20022;-71
2022/06/03 11:19:26;;;;;;;2.08;1.35;;;26.40;49.50;;;;;;9175288;19;20022;-69
2022/06/03 11:22:34;;;;;;;4.57;1.65;;;26.40;49.80;;;;;;9175198;19;20032;-70
2022/06/03 11:25:41;;;;;;;3.78;1.70;;;26.40;49.80;;;;;;9174584;19;20017;-70
2022/06/03 11:28:54;;;;;;;2.33;1.42;;;26.50;49.70;;;;;;9175454;19;20018;-69
2022/06/03 11:32:04;;;;;;;4.22;1.02;;;26.50;49.50;;;;;;9174737;19;20011;-71
2022/06/03 11:35:14;;;;;;;1.75;1.23;;;26.60;49.30;;;;;;9173994;19;20029;-71
2022/06/03 11:38:22;;;;;;;2.95;1.23;;;26.60;49.20;;;;;;9174477;19;20669;-73
2022/06/03 11:41:30;;;;;;;2.55;1.20;;;26.60;49.00;;;;;;9172803;19;20490;-71
2022/06/03 11:44:40;;;;;;;1.98;1.30;;;26.60;48.90;;;;;;9178152;19;20022;-72
2022/06/03 11:47:54;;;;;;;7.60;1.38;;;26.70;48.80;;;;;;9175679;19;20413;-72
2022/06/03 11:51:01;;;;;;;3.13;1.08;;;26.70;48.30;;;;;;9174229;19;20026;-75
2022/06/03 11:54:13;;;;;;;5.25;1.40;;;26.70;48.40;;;;;;9176960;19;20021;-72
2022/06/03 11:57:18;;;;;;;1.48;1.10;;;26.70;48.20;;;;;;9174848;19;20498;-73
2022/06/03 12:00:26;;;;;;;2.70;1.17;;;26.70;48.20;;;;;;9182978;19;20018;-73
2022/06/03 12:03:45;;;;;;;2.42;1.50;;;26.70;48.10;;;;;;9181870;19;20813;-73
2022/06/03 12:07:00;;;;;;;5.57;1.42;;;26.70;47.70;;;;;;9184385;19;20476;-71
2022/06/03 12:10:13;;;;;;;5.38;1.13;;;26.70;47.80;;;;;;9184627;19;20026;-73
2022/06/03 12:13:21;;;;;;;2.75;1.33;;;26.70;47.70;;;;;;9183909;19;20015;-69
2022/06/03 12:16:26;;;;;;;1.73;0.95;;;26.70;47.60;;;;;;9175786;19;20015;-67
2022/06/03 12:19:43;;;;;;;3.15;1.40;;;26.80;47.60;;;;;;9183209;19;20056;-67
2022/06/03 12:22:48;;;;;;;3.53;1.50;;;26.80;47.30;;;;;;9180199;19;20015;-67
2022/06/03 12:26:11;;;;;;;1.42;1.10;;;26.80;47.60;;;;;;9181910;19;20074;-68
2022/06/03 12:29:22;;;;;;;3.13;1.20;;;26.80;47.30;;;;;;9182978;19;20015;-68
2022/06/03 12:32:30;;;;;;;1.65;1.10;;;26.80;47.20;;;;;;9184157;19;20464;-67
2022/06/03 12:35:57;;;;;;;2.25;1.27;;;26.80;47.00;;;;;;9180273;19;20696;-69
2022/06/03 12:39:23;;;;;;;;;;;26.80;46.80;;;;;;9180884;19;20213;-66
2022/06/03 12:42:41;;;;;;;1.58;1.27;;;26.80;47.60;;;;;;9181618;19;20349;-67
2022/06/03 12:46:00;;;;;;;1.45;1.30;;;26.90;47.20;;;;;;9183022;19;20022;-66
2022/06/03 12:49:06;;;;;;;3.55;1.20;;;26.80;46.80;;;;;;9182613;19;20823;-67
2022/06/03 12:52:35;;;;;;;2.58;1.25;;;26.70;47.00;;;;;;9180426;19;20350;-67
2022/06/03 12:55:44;;;;;;;4.80;1.50;;;26.70;46.70;;;;;;9181102;19;20019;-67
2022/06/03 12:58:56;;;;;;;2.97;1.17;;;26.70;46.70;;;;;;9183735;19;20015;-68
2022/06/03 13:02:10;;;;;;;2.33;1.30;;;26.60;46.50;;;;;;9181254;19;20029;-70
2022/06/03 13:05:30;;;;;;;1.40;1.02;;;26.60;46.20;;;;;;9180899;19;20354;-68
2022/06/03 13:12:18;;;;;;;2.78;1.27;;;26.60;46.10;;;;;;9179627;19;20030;-65
2022/06/03 13:15:45;;;;;;;5.78;1.60;;;26.60;46.20;;;;;;9177727;19;20656;-68
2022/06/03 13:18:52;;;;;;;1.40;1.15;;;26.60;46.10;;;;;;9180664;19;20026;-66
2022/06/03 13:22:07;;;;;;;4.47;1.30;;;26.60;46.30;;;;;;9180016;19;20137;-68
2022/06/03 13:25:31;;;;;;;2.92;1.65;;;26.60;45.90;;;;;;9182328;19;20014;-69
2022/06/03 13:28:43;;;;;;;3.83;1.80;;;26.60;46.00;;;;;;9180956;19;20017;-68
2022/06/03 13:32:16;;;;;;;1.98;1.30;;;26.60;46.20;;;;;;9169481;19;20033;-68
2022/06/03 13:35:24;;;;;;;2.73;1.40;;;26.60;46.00;;;;;;9175418;19;20041;-68
2022/06/03 13:38:43;;;;;;;2.95;1.50;;;26.50;46.10;;;;;;9176757;19;20018;-69
2022/06/03 13:45:22;;;;;;;2.50;1.30;;;26.40;46.00;;;;;;9173249;19;20460;-67
2022/06/03 13:48:35;;;;;;;4.68;1.25;;;26.40;45.90;;;;;;9179870;19;20015;-68
2022/06/03 13:51:58;;;;;;;1.83;1.10;;;26.40;46.00;;;;;;9177905;19;20369;-69
2022/06/03 13:55:18;;;;;;;3.50;1.33;;;26.40;45.70;;;;;;9177372;19;20025;-69
2022/06/03 13:58:28;;;;;;;2.40;1.20;;;26.40;45.70;;;;;;9177060;19;20033;-69
2022/06/03 14:01:46;;;;;;;1.27;1.08;;;26.30;45.80;;;;;;9177528;19;20006;-69
2022/06/03 14:05:04;;;;;;;3.78;1.10;;;26.30;45.70;;;;;;9177214;19;20018;-69
2022/06/03 14:08:16;;;;;;;1.90;1.38;;;26.30;45.80;;;;;;9176791;19;20014;-69
2022/06/03 14:11:29;;;;;;;2.85;1.20;;;26.30;45.70;;;;;;9177355;19;20015;-69
2022/06/03 14:14:40;;;;;;;1.48;1.08;;;26.20;45.70;;;;;;9171629;19;20025;-68
2022/06/03 14:17:58;;;;;;;3.35;1.25;;;26.20;45.70;;;;;;9174655;19;20014;-70
2022/06/03 14:21:04;;;;;;;3.45;1.02;;;26.20;45.40;;;;;;9175272;19;20742;-69
2022/06/03 14:24:24;;;;;;;2.03;1.40;;;26.10;45.50;;;;;;9175210;19;20485;-68
2022/06/03 14:27:35;;;;;;;2.75;1.10;;;26.10;45.40;;;;;;9178756;19;20014;-69
2022/06/03 14:30:51;;;;;;;2.05;0.90;;;26.10;45.40;;;;;;9175035;19;20476;-69
2022/06/03 14:34:11;;;;;;;1.30;1.02;;;26.00;45.40;;;;;;9176120;19;20082;-67
2022/06/03 14:37:21;;;;;;;5.00;1.10;;;26.00;45.30;;;;;;9174763;19;20018;-68
2022/06/03 14:40:29;;;;;;;4.38;1.40;;;26.00;45.40;;;;;;9173470;19;20026;-70
2022/06/03 14:43:34;;;;;;;2.13;1.67;;;26.00;45.40;;;;;;9173335;19;20053;-71
2022/06/03 14:46:47;;;;;;;1.73;1.05;;;26.00;45.40;;;;;;9173008;19;20029;-70
2022/06/03 14:49:58;;;;;;;1.88;1.20;;;26.00;45.30;;;;;;9172328;19;20019;-70
2022/06/03 14:53:09;;;;;;;1.10;0.98;;;25.90;45.20;;;;;;9174614;19;20029;-71
2022/06/03 14:56:30;;;;;;;3.17;0.85;;;25.90;45.30;;;;;;9169698;19;20034;-70
2022/06/03 15:00:02;;;;;;;1.75;1.10;;;25.90;45.20;;;;;;9174869;19;20022;-70
2022/06/03 15:03:16;;;;;;;5.65;0.93;;;25.80;45.20;;;;;;9174993;19;20010;-71
2022/06/03 15:06:29;;;;;;;3.38;1.40;;;25.90;45.40;;;;;;9172329;19;20018;-72
2022/06/03 15:09:40;;;;;;;5.40;1.50;;;25.80;45.30;;;;;;9175126;19;20359;-71
2022/06/03 15:12:54;;;;;;;3.00;1.45;;;25.80;45.30;;;;;;9173116;19;20022;-70
2022/06/03 15:16:05;;;;;;;7.38;1.75;;;25.80;45.10;;;;;;9167657;19;20014;-72
2022/06/03 15:19:11;;;;;;;4.40;1.45;;;25.80;45.30;;;;;;9174238;19;20022;-72
2022/06/03 15:22:22;;;;;;;3.72;1.67;;;25.80;45.30;;;;;;9173901;19;20021;-73
2022/06/03 15:25:36;;;;;;;2.90;1.10;;;25.70;45.10;;;;;;9170639;19;20025;-71
2022/06/03 15:28:41;;;;;;;1.30;1.10;;;25.70;45.10;;;;;;9172193;19;20019;-72
2022/06/03 15:31:53;;;;;;;3.72;0.82;;;25.70;45.20;;;;;;9163357;19;20022;-67
2022/06/03 15:35:04;;;;;;;2.58;1.20;;;25.70;45.10;;;;;;9177087;19;20491;-67
2022/06/03 15:38:16;;;;;;;1.25;0.88;;;25.70;45.10;;;;;;9176014;19;20014;-66
2022/06/03 15:41:23;;;;;;;4.03;1.00;;;25.70;45.00;;;;;;9184279;19;20014;-68
2022/06/03 15:44:35;;;;;;;4.90;1.23;;;25.70;45.00;;;;;;9180905;19;20019;-68
2022/06/03 15:47:40;;;;;;;3.25;1.23;;;25.60;44.80;;;;;;9182319;19;20038;-66
2022/06/03 15:50:50;;;;;;;5.65;1.20;;;25.60;44.90;;;;;;9182706;19;20475;-67
2022/06/03 15:54:00;;;;;;;2.90;1.20;;;25.60;44.80;;;;;;9180824;19;20022;-67
2022/06/03 15:57:23;;;;;;;4.43;1.13;;;25.60;44.60;;;;;;9181109;19;20022;-67
2022/06/03 16:00:40;;;;;;;3.45;1.30;;;25.60;44.50;;;;;;9182261;19;20018;-67
2022/06/03 16:03:57;;;;;;;2.92;1.27;;;25.50;45.10;;;;;;9182354;19;20010;-67
2022/06/03 16:07:10;;;;;;;2.72;1.40;;;25.50;44.50;;;;;;9180691;19;20057;-70
2022/06/03 16:10:21;;;;;;;2.17;1.10;;;25.50;44.60;;;;;;9188292;19;20010;-70
2022/06/03 16:13:38;;;;;;;1.48;1.08;;;25.40;44.40;;;;;;9182639;19;20012;-69
2022/06/03 16:17:00;;;;;;;2.08;0.95;;;25.40;44.40;;;;;;9176260;19;20014;-69
2022/06/03 16:20:12;;;;;;;7.43;1.70;;;25.40;44.40;;;;;;9182276;19;20854;-70
2022/06/03 16:23:36;;;;;;;2.92;1.05;;;25.40;44.60;;;;;;9179203;19;20014;-69
2022/06/03 16:26:49;;;;;;;2.67;1.00;;;25.40;44.50;;;;;;9180318;19;20470;-69
2022/06/03 16:30:03;;;;;;;2.05;1.17;;;25.30;44.50;;;;;;9175336;19;20034;-69
2022/06/03 16:33:20;;;;;;;4.82;1.10;;;25.40;44.50;;;;;;9178591;19;20093;-69
2022/06/03 16:36:33;;;;;;;2.13;1.00;;;25.40;44.40;;;;;;9181478;19;20010;-73
2022/06/03 16:39:48;;;;;;;1.13;0.90;;;25.30;44.50;;;;;;9178377;19;20022;-67
2022/06/03 16:43:04;;;;;;;1.80;1.10;;;25.30;44.30;;;;;;9178842;19;20107;-68
2022/06/03 16:46:18;;;;;;;2.88;1.00;;;25.30;44.20;;;;;;9176363;19;20018;-68
2022/06/03 16:49:42;;;;;;;1.08;0.85;;;25.20;44.20;;;;;;9177929;19;20018;-68
2022/06/03 16:52:51;;;;;;;2.35;1.23;;;25.20;44.30;;;;;;9178372;19;20014;-68
2022/06/03 16:56:00;;;;;;;2.10;1.05;;;25.20;44.30;;;;;;9177880;19;20022;-67
2022/06/03 16:59:18;;;;;;;4.28;1.48;;;25.10;44.20;;;;;;9176612;19;20113;-67
2022/06/03 17:02:28;;;;;;;1.35;1.02;;;25.10;44.10;;;;;;9177365;19;20053;-68
2022/06/03 17:05:33;;;;;;;2.88;1.30;;;25.00;44.30;;;;;;9176570;19;20380;-68
2022/06/03 17:08:42;;;;;;;5.45;1.42;;;25.00;44.40;;;;;;9173875;19;20021;-68
2022/06/03 17:11:48;;;;;;;3.15;1.20;;;24.90;44.40;;;;;;9175371;19;20029;-67
2022/06/03 17:14:56;;;;;;;1.80;1.10;;;24.90;44.60;;;;;;9169366;19;20014;-68
2022/06/03 17:18:02;;;;;;;2.35;0.95;;;24.80;44.60;;;;;;9176573;19;20083;-68
2022/06/03 17:21:26;;;;;;;5.25;1.25;;;24.70;44.70;;;;;;9176173;19;20499;-68
2022/06/03 17:24:50;;;;;;;1.73;1.30;;;24.60;44.70;;;;;;9176960;19;20484;-68
2022/06/03 17:28:22;;;;;;;1.92;1.10;;;24.60;44.80;;;;;;9178177;19;20112;-68
2022/06/03 17:31:39;;;;;;;3.55;1.10;;;24.50;44.80;;;;;;9173486;19;20019;-68
2022/06/03 17:35:01;;;;;;;2.55;1.08;;;24.40;44.90;;;;;;9172609;19;20010;-68
2022/06/03 17:38:20;;;;;;;2.95;1.20;;;24.30;45.00;;;;;;9173346;19;20135;-67
2022/06/03 17:41:31;;;;;;;3.00;1.27;;;24.20;45.10;;;;;;9173820;19;20010;-68
2022/06/03 17:44:49;;;;;;;2.55;1.40;;;24.10;45.30;;;;;;9172890;19;20030;-67